Airfield :
LOGIN :

Register | Disclaimer

   EN    FR    IT 

 










Legend :    VFR   Marginal VFR   IFR   Intensive IFR   Very Intensive IFR
Visi :
Ceiling :
>= 8 km
>= 3000ft
5 to 8 km
1000 to 3000 ft
1500m to 5 km
500 to 1000 ft
800 to 1500m
200 to 500 ft
< 800m
< 200 ft
Symbols :   Thunderstorms  Fog  Heavy snow  Heavy precipitations  Wind > 20 kt
SIGMETs :     Misc.  Thunderstorms  Icing  Turbulence  Mountain Waves  Volcanic Ashes







- Airport Elevation : 3 ft
- IATA code : LWR


EHLW - Leuuwarden Air Base

CURRENT METAR :
  • 270555Z AUTO 36008KT 330V040 9999 OVC019 14/10 Q1029 WHT 36008KT 9999 BKN018

EXPIRED METARs :
  • 270534Z AUTO 35008KT 9999 OVC018 14/10 Q1029 WHT 36008KT 9999 BKN018
  • 270525Z AUTO 36006KT 330V040 9999 OVC018 14/10 Q1029 WHT
  • 270455Z AUTO 36008KT 330V030 9999 OVC019 14/10 Q1029 WHT
  • 270425Z AUTO 35009KT 300V010 9999 OVC018 14/10 Q1029 WHT
  • 270355Z AUTO 36009KT 320V030 9999 BKN017 OVC020 13/10 Q1029 WHT
  • 270325Z AUTO 36007KT 330V030 9999 BKN018 13/09 Q1029 WHT

TAF TAF EHLW
Valid from the 27 at 05:00 until the 27 at 17:00 UTC


270402Z 2705/2717 36010KT 9999 BKN018
BECMG 2706/2708 BKN020
No reported NOTAMs for that airfield.



MET'MAP, your aeronautical weather chart ! - Copyright ORBIFLY December 2007 - Disclaimer

ORBIFLY MET'MAP TEAM :

Programming & Development : Alexandra Zaïnal
Concept & Development : Baudouin d'Aumeries
Co-Development & Prog : Marc-Olivier Méhu
Technical & hardware support : Manuel Goepfert

Contact : metmap@orbifly.com




SOURCES & CREDITS :

   NOAA